createdAt,value
2023-02-23T00:00:32.349Z,-7.19
2023-02-23T00:03:02.060Z,-7.22
2023-02-23T00:05:32.355Z,-7.23
2023-02-23T00:08:02.096Z,-7.27
2023-02-23T00:10:33.839Z,-7.29
2023-02-23T00:13:02.706Z,-7.32
2023-02-23T00:15:32.316Z,-7.33
2023-02-23T00:18:01.140Z,-7.35
2023-02-23T00:20:30.394Z,-7.37
2023-02-23T00:22:59.128Z,-7.38
2023-02-23T00:25:28.110Z,-7.40
2023-02-23T00:27:59.563Z,-7.44
2023-02-23T00:30:28.328Z,-7.47
2023-02-23T00:32:56.788Z,-7.48
2023-02-23T00:35:25.498Z,-7.48
2023-02-23T00:37:58.530Z,-7.46
2023-02-23T00:40:27.879Z,-7.44
2023-02-23T00:42:56.318Z,-7.40
2023-02-23T00:45:27.070Z,-7.38
2023-02-23T00:47:55.455Z,-7.38
2023-02-23T00:50:24.608Z,-7.37
2023-02-23T00:52:53.073Z,-7.35
2023-02-23T00:55:21.488Z,-7.33
2023-02-23T00:57:50.523Z,-7.32
2023-02-23T01:00:21.002Z,-7.32
2023-02-23T01:02:51.404Z,-7.31
2023-02-23T01:05:21.100Z,-7.29
2023-02-23T01:07:51.316Z,-7.29
2023-02-23T01:10:20.030Z,-7.29
2023-02-23T01:12:51.138Z,-7.30
2023-02-23T01:15:20.489Z,-7.30
2023-02-23T01:17:49.025Z,-7.31
2023-02-23T01:20:19.365Z,-7.32
2023-02-23T01:22:49.833Z,-7.35
2023-02-23T01:25:18.626Z,-7.37
2023-02-23T01:27:47.127Z,-7.39
2023-02-23T01:30:15.833Z,-7.40
2023-02-23T01:32:46.134Z,-7.44
2023-02-23T01:35:14.622Z,-7.46
2023-02-23T01:37:43.116Z,-7.47
2023-02-23T01:40:16.747Z,-7.50
2023-02-23T01:42:49.286Z,-7.52
2023-02-23T01:45:26.385Z,-7.56
2023-02-23T01:48:07.333Z,-7.62
2023-02-23T01:50:49.780Z,-7.66
2023-02-23T01:53:18.592Z,-7.69
2023-02-23T01:55:51.484Z,-7.71
2023-02-23T01:58:29.727Z,-7.74
2023-02-23T02:01:02.013Z,-7.77
2023-02-23T02:03:35.525Z,-7.80
2023-02-23T02:06:05.194Z,-7.81
2023-02-23T02:08:34.046Z,-7.85
2023-02-23T02:11:25.997Z,-7.89
2023-02-23T02:14:02.794Z,-7.94
2023-02-23T02:16:35.406Z,-7.99
2023-02-23T02:19:17.077Z,-8.02
2023-02-23T02:22:15.036Z,-8.03
2023-02-23T02:25:25.753Z,-8.05
2023-02-23T02:28:04.645Z,-8.09
2023-02-23T02:30:41.971Z,-8.12
2023-02-23T02:33:35.475Z,-8.15
2023-02-23T02:36:18.819Z,-8.16
2023-02-23T02:39:10.894Z,-8.17
2023-02-23T02:41:51.754Z,-8.16
2023-02-23T02:44:42.348Z,-8.16
2023-02-23T02:47:19.925Z,-8.18
2023-02-23T02:50:24.966Z,-8.20
2023-02-23T02:52:59.548Z,-8.23
2023-02-23T02:55:29.373Z,-8.27
2023-02-23T02:57:59.277Z,-8.31
2023-02-23T03:00:59.993Z,-8.36
2023-02-23T03:03:55.646Z,-8.41
2023-02-23T03:06:49.516Z,-8.48
2023-02-23T03:09:53.071Z,-8.52
2023-02-23T03:12:43.353Z,-8.57
2023-02-23T03:15:51.611Z,-8.61
2023-02-23T03:18:55.716Z,-8.62
2023-02-23T03:21:47.899Z,-8.64
2023-02-23T03:24:51.768Z,-8.65
2023-02-23T03:27:57.980Z,-8.66
2023-02-23T03:31:10.790Z,-8.67
2023-02-23T03:34:03.596Z,-8.68
2023-02-23T03:36:53.385Z,-8.70
2023-02-23T03:39:56.205Z,-8.70
2023-02-23T03:42:45.830Z,-8.70
2023-02-23T03:45:35.736Z,-8.71
2023-02-23T03:48:25.173Z,-8.74
2023-02-23T03:51:15.522Z,-8.75
2023-02-23T03:54:37.295Z,-8.75
2023-02-23T03:57:25.061Z,-8.78
2023-02-23T04:00:16.101Z,-8.82
2023-02-23T04:03:05.838Z,-8.87
2023-02-23T04:05:56.299Z,-8.92
2023-02-23T04:08:50.139Z,-8.97
2023-02-23T04:11:58.791Z,-8.98
2023-02-23T04:14:56.375Z,-8.99
2023-02-23T04:17:27.010Z,-9.03
2023-02-23T04:19:55.513Z,-9.07
2023-02-23T04:22:25.428Z,-9.08
2023-02-23T04:24:53.977Z,-9.10
2023-02-23T04:27:22.418Z,-9.11
2023-02-23T04:29:50.860Z,-9.13
2023-02-23T04:32:23.480Z,-9.16
2023-02-23T04:34:52.096Z,-9.17
2023-02-23T04:37:20.583Z,-9.17
2023-02-23T04:39:50.616Z,-9.17
2023-02-23T04:42:19.094Z,-9.19
2023-02-23T04:44:47.833Z,-9.19
2023-02-23T04:47:16.388Z,-9.18
2023-02-23T04:49:44.848Z,-9.18
2023-02-23T04:52:13.719Z,-9.19
2023-02-23T04:54:43.528Z,-9.19
2023-02-23T04:57:12.226Z,-9.19
2023-02-23T04:59:40.887Z,-9.19
2023-02-23T05:02:10.095Z,-9.18
2023-02-23T05:04:39.233Z,-9.17
2023-02-23T05:07:07.647Z,-9.13
2023-02-23T05:09:36.053Z,-9.11
2023-02-23T05:12:04.850Z,-9.08
2023-02-23T05:14:34.242Z,-9.05
2023-02-23T05:17:03.654Z,-9.01
2023-02-23T05:19:35.606Z,-8.95
2023-02-23T05:22:05.657Z,-8.91
2023-02-23T05:24:34.112Z,-8.83
2023-02-23T05:27:02.516Z,-8.74
2023-02-23T05:29:32.115Z,-8.61
2023-02-23T05:32:01.104Z,-8.48
2023-02-23T05:34:29.961Z,-8.38
2023-02-23T05:36:58.355Z,-8.32
2023-02-23T05:39:26.937Z,-8.29
2023-02-23T05:41:55.670Z,-8.26
2023-02-23T05:44:25.366Z,-8.22
2023-02-23T05:46:54.629Z,-8.18
2023-02-23T05:49:23.212Z,-8.12
2023-02-23T05:51:51.873Z,-8.02
2023-02-23T05:54:20.478Z,-7.91
2023-02-23T05:56:49.401Z,-7.80
2023-02-23T05:59:18.587Z,-7.68
2023-02-23T06:01:47.246Z,-7.58
2023-02-23T06:04:15.690Z,-7.46
2023-02-23T06:06:45.654Z,-7.36
2023-02-23T06:09:19.261Z,-7.30
2023-02-23T06:11:49.816Z,-7.29
2023-02-23T06:14:18.307Z,-7.26
2023-02-23T06:16:51.433Z,-7.20
2023-02-23T06:19:20.324Z,-7.08
2023-02-23T06:21:49.115Z,-7.01
2023-02-23T06:24:18.034Z,-6.95
2023-02-23T06:26:46.882Z,-6.87
2023-02-23T06:29:15.877Z,-6.77
2023-02-23T06:31:44.497Z,-6.66
2023-02-23T06:34:13.793Z,-6.58
2023-02-23T06:36:43.296Z,-6.49
2023-02-23T06:39:13.807Z,-6.38
2023-02-23T06:41:43.946Z,-6.24
2023-02-23T06:44:12.481Z,-6.06
2023-02-23T06:46:41.386Z,-5.91
2023-02-23T06:49:12.018Z,-5.75
2023-02-23T06:51:43.533Z,-5.61
2023-02-23T06:54:12.657Z,-5.53
2023-02-23T06:56:41.534Z,-5.53
2023-02-23T06:59:09.974Z,-5.54
2023-02-23T07:01:38.829Z,-5.48
2023-02-23T07:04:07.853Z,-5.44
2023-02-23T07:06:38.276Z,-5.46
2023-02-23T07:09:07.045Z,-5.51
2023-02-23T07:11:35.609Z,-5.50
2023-02-23T07:14:04.104Z,-5.46
2023-02-23T07:16:32.632Z,-5.48
2023-02-23T07:19:01.225Z,-5.48
2023-02-23T07:21:32.337Z,-5.43
2023-02-23T07:24:01.280Z,-5.38
2023-02-23T07:26:29.892Z,-5.28
2023-02-23T07:28:58.342Z,-5.21
2023-02-23T07:31:26.961Z,-5.14
2023-02-23T07:33:56.402Z,-5.06
2023-02-23T07:36:24.902Z,-4.94
2023-02-23T07:38:55.797Z,-4.79
2023-02-23T07:41:24.325Z,-4.66
2023-02-23T07:43:52.833Z,-4.53
2023-02-23T07:46:21.377Z,-4.41
2023-02-23T07:48:50.259Z,-4.35
2023-02-23T07:51:19.781Z,-4.23
2023-02-23T07:53:49.753Z,-4.03
2023-02-23T07:56:18.214Z,-3.91
2023-02-23T07:58:48.899Z,-3.98
2023-02-23T08:01:17.821Z,-4.02
2023-02-23T08:03:49.892Z,-3.96
2023-02-23T08:06:19.668Z,-3.84
2023-02-23T08:08:48.883Z,-3.74
2023-02-23T08:11:20.739Z,-3.67
2023-02-23T08:13:50.637Z,-3.66
2023-02-23T08:16:19.652Z,-3.61
2023-02-23T08:18:48.266Z,-3.55
2023-02-23T08:21:17.272Z,-3.47
2023-02-23T08:23:45.898Z,-3.41
2023-02-23T08:26:16.645Z,-3.35
2023-02-23T08:28:46.824Z,-3.30
2023-02-23T08:31:16.547Z,-3.26
2023-02-23T08:33:46.124Z,-3.19
2023-02-23T08:36:14.550Z,-3.10
2023-02-23T08:38:43.059Z,-3.01
2023-02-23T08:41:11.604Z,-3.00
2023-02-23T08:43:44.122Z,-2.91
2023-02-23T08:46:13.123Z,-2.71
2023-02-23T08:49:15.074Z,-2.57
2023-02-23T08:51:46.176Z,-2.48
2023-02-23T08:54:16.489Z,-2.48
2023-02-23T08:56:45.736Z,-2.49
2023-02-23T08:59:14.652Z,-2.45
2023-02-23T09:01:44.060Z,-2.34
2023-02-23T09:04:13.390Z,-2.31
2023-02-23T09:06:41.861Z,-2.31
2023-02-23T09:09:10.710Z,-2.30
2023-02-23T09:11:39.293Z,-2.44
2023-02-23T09:14:08.945Z,-2.56
2023-02-23T09:16:37.579Z,-2.38
2023-02-23T09:19:10.085Z,-2.13
2023-02-23T09:21:38.838Z,-2.02
2023-02-23T09:24:07.732Z,-1.99
2023-02-23T09:26:40.225Z,-1.97
2023-02-23T09:29:08.890Z,-1.95
2023-02-23T09:31:38.974Z,-1.95
2023-02-23T09:34:09.639Z,-1.93
2023-02-23T09:36:40.685Z,-1.71
2023-02-23T09:39:09.498Z,-1.60
2023-02-23T09:41:47.166Z,-1.54
2023-02-23T09:44:42.166Z,-1.39
2023-02-23T09:47:18.904Z,-1.21
2023-02-23T09:49:48.962Z,-0.92
2023-02-23T09:52:24.324Z,-0.71
2023-02-23T09:54:52.777Z,-0.72
2023-02-23T09:57:29.835Z,-0.69
2023-02-23T09:59:59.782Z,-0.81
2023-02-23T10:02:51.510Z,-1.03
2023-02-23T10:05:20.001Z,-1.24
2023-02-23T10:07:52.807Z,-1.42
2023-02-23T10:10:41.490Z,-1.40
2023-02-23T10:13:46.469Z,-1.24
2023-02-23T10:16:38.232Z,-0.99
2023-02-23T10:19:11.057Z,-0.76
2023-02-23T10:21:43.884Z,-0.70
2023-02-23T10:24:46.060Z,-0.75
2023-02-23T10:28:28.827Z,-0.88
2023-02-23T10:31:19.764Z,-0.89
2023-02-23T10:33:51.720Z,-0.82
2023-02-23T10:36:46.315Z,-0.73
2023-02-23T10:39:15.069Z,-0.54
2023-02-23T10:41:43.975Z,-0.50
2023-02-23T10:44:25.417Z,-0.56
2023-02-23T10:47:20.306Z,-0.47
2023-02-23T10:49:51.385Z,-0.53
2023-02-23T10:52:23.163Z,-0.53
2023-02-23T10:54:52.098Z,-0.43
2023-02-23T10:57:33.570Z,-0.42
2023-02-23T11:00:28.748Z,-0.44
2023-02-23T11:02:58.832Z,-0.50
2023-02-23T11:05:28.816Z,-0.51
2023-02-23T11:08:37.518Z,-0.51
2023-02-23T11:11:16.100Z,-0.46
2023-02-23T11:13:46.812Z,-0.53
2023-02-23T11:16:19.932Z,-0.76
2023-02-23T11:18:58.795Z,-0.94
2023-02-23T11:21:34.189Z,-1.01
2023-02-23T11:24:43.273Z,-1.00
2023-02-23T11:27:23.486Z,-0.84
2023-02-23T11:29:56.239Z,-0.72
2023-02-23T11:32:29.030Z,-0.61
2023-02-23T11:35:17.539Z,-0.59
2023-02-23T11:37:46.558Z,-0.49
2023-02-23T11:40:35.030Z,-0.44
2023-02-23T11:43:07.603Z,-0.35
2023-02-23T11:46:01.093Z,-0.31
2023-02-23T11:48:43.383Z,-0.32
2023-02-23T11:51:13.601Z,-0.29
2023-02-23T11:53:45.773Z,-0.15
2023-02-23T11:56:14.747Z,0.03
2023-02-23T11:58:45.300Z,0.07
2023-02-23T12:01:21.502Z,0.14
2023-02-23T12:03:57.555Z,0.25
2023-02-23T12:06:31.069Z,0.24
2023-02-23T12:09:13.222Z,0.19
2023-02-23T12:11:45.701Z,0.10
2023-02-23T12:14:41.636Z,0.02
2023-02-23T12:17:28.144Z,0.08
2023-02-23T12:20:02.903Z,0.10
2023-02-23T12:22:40.076Z,0.09
2023-02-23T12:25:32.464Z,0.08
2023-02-23T12:28:28.369Z,-0.00
2023-02-23T12:31:05.090Z,-0.10
2023-02-23T12:33:42.481Z,-0.20
2023-02-23T12:36:35.680Z,-0.25
2023-02-23T12:39:33.340Z,-0.07
2023-02-23T12:42:08.156Z,0.11
2023-02-23T12:45:04.284Z,0.17
2023-02-23T12:47:36.872Z,0.04
2023-02-23T12:50:13.578Z,-0.13
2023-02-23T12:53:01.825Z,-0.20
2023-02-23T12:55:41.793Z,-0.17
2023-02-23T12:58:21.552Z,-0.02
2023-02-23T13:01:00.044Z,0.17
2023-02-23T13:04:12.774Z,0.22
2023-02-23T13:07:21.057Z,0.06
2023-02-23T13:10:31.230Z,-0.06
2023-02-23T13:13:11.897Z,-0.01
2023-02-23T13:16:33.658Z,0.07
2023-02-23T13:19:39.093Z,0.22
2023-02-23T13:22:30.521Z,0.38
2023-02-23T13:25:04.616Z,0.56
2023-02-23T13:27:46.595Z,0.68
2023-02-23T13:30:21.456Z,1.12
2023-02-23T13:32:50.667Z,1.49
2023-02-23T13:35:21.936Z,1.73
2023-02-23T13:37:53.530Z,1.95
2023-02-23T13:40:47.194Z,2.21
2023-02-23T13:43:30.197Z,2.46
2023-02-23T13:46:27.807Z,2.47
2023-02-23T13:49:09.131Z,2.34
2023-02-23T13:51:39.418Z,2.12
2023-02-23T13:54:32.170Z,1.98
2023-02-23T13:57:02.602Z,1.87
2023-02-23T13:59:37.232Z,1.62
2023-02-23T14:02:33.628Z,1.34
2023-02-23T14:05:21.313Z,1.19
2023-02-23T14:07:55.489Z,0.91
2023-02-23T14:10:48.835Z,0.70
2023-02-23T14:13:18.467Z,0.45
2023-02-23T14:16:11.686Z,0.28
2023-02-23T14:19:12.081Z,0.01
2023-02-23T14:21:56.479Z,-0.46
2023-02-23T14:24:26.477Z,-0.90
2023-02-23T14:27:04.882Z,-1.20
2023-02-23T14:29:59.382Z,-1.39
2023-02-23T14:32:29.371Z,-1.66
2023-02-23T14:34:59.682Z,-1.84
2023-02-23T14:37:34.650Z,-2.04
2023-02-23T14:40:15.247Z,-2.19
2023-02-23T14:42:51.986Z,-2.34
2023-02-23T14:45:29.058Z,-2.51
2023-02-23T14:48:07.084Z,-2.69
2023-02-23T14:50:36.700Z,-2.83
2023-02-23T14:53:10.364Z,-2.97
2023-02-23T14:55:42.228Z,-3.12
2023-02-23T14:58:23.497Z,-3.25
2023-02-23T15:00:52.459Z,-3.37
2023-02-23T15:03:22.698Z,-3.46
2023-02-23T15:05:55.598Z,-3.55
2023-02-23T15:08:29.232Z,-3.66
2023-02-23T15:11:08.620Z,-3.77
2023-02-23T15:13:49.155Z,-3.89
2023-02-23T15:16:36.064Z,-3.97
2023-02-23T15:19:08.095Z,-4.06
2023-02-23T15:21:40.168Z,-4.13
2023-02-23T15:24:13.664Z,-4.19
2023-02-23T15:26:43.950Z,-4.26
2023-02-23T15:29:25.915Z,-4.33
2023-02-23T15:31:55.695Z,-4.42
2023-02-23T15:34:30.974Z,-4.49
2023-02-23T15:37:05.887Z,-4.57
2023-02-23T15:40:02.917Z,-4.64
2023-02-23T15:42:38.220Z,-4.71
2023-02-23T15:45:36.473Z,-4.77
2023-02-23T15:48:18.777Z,-4.82
2023-02-23T15:50:51.205Z,-4.87
2023-02-23T15:53:27.725Z,-4.93
2023-02-23T15:56:10.295Z,-4.99
2023-02-23T15:58:51.044Z,-5.05
2023-02-23T16:01:31.236Z,-5.11
2023-02-23T16:04:08.117Z,-5.18
2023-02-23T16:06:38.946Z,-5.26
2023-02-23T16:09:24.263Z,-5.33
2023-02-23T16:11:53.184Z,-5.40
2023-02-23T16:14:24.417Z,-5.46
2023-02-23T16:17:09.906Z,-5.51
2023-02-23T16:19:41.891Z,-5.57
2023-02-23T16:22:32.079Z,-5.62
2023-02-23T16:25:05.580Z,-5.66
2023-02-23T16:27:34.003Z,-5.69
2023-02-23T16:30:23.627Z,-5.70
2023-02-23T16:33:08.019Z,-5.73
2023-02-23T16:35:45.634Z,-5.75
2023-02-23T16:38:34.043Z,-5.77
2023-02-23T16:41:04.559Z,-5.78
2023-02-23T16:43:35.237Z,-5.78
2023-02-23T16:46:03.860Z,-5.79
2023-02-23T16:48:32.874Z,-5.82
2023-02-23T16:51:01.763Z,-5.86
2023-02-23T16:53:30.343Z,-5.94
2023-02-23T16:56:01.210Z,-5.99
2023-02-23T16:58:31.817Z,-6.03
2023-02-23T17:01:02.815Z,-6.06
2023-02-23T17:03:34.210Z,-6.11
2023-02-23T17:06:09.746Z,-6.16
2023-02-23T17:08:43.416Z,-6.20
2023-02-23T17:11:14.600Z,-6.24
2023-02-23T17:13:44.821Z,-6.27
2023-02-23T17:16:13.607Z,-6.28
2023-02-23T17:18:43.080Z,-6.31
2023-02-23T17:21:13.944Z,-6.34
2023-02-23T17:23:51.450Z,-6.36
2023-02-23T17:26:24.724Z,-6.38
2023-02-23T17:28:54.231Z,-6.38
2023-02-23T17:31:25.740Z,-6.39
2023-02-23T17:33:56.113Z,-6.39
2023-02-23T17:36:27.758Z,-6.39
2023-02-23T17:38:58.881Z,-6.37
2023-02-23T17:41:27.686Z,-6.34
2023-02-23T17:43:57.303Z,-6.34
2023-02-23T17:46:26.072Z,-6.34
2023-02-23T17:48:56.203Z,-6.35
2023-02-23T17:51:25.108Z,-6.34
2023-02-23T17:53:54.394Z,-6.33
2023-02-23T17:56:24.418Z,-6.34
2023-02-23T17:58:53.403Z,-6.36
2023-02-23T18:01:22.273Z,-6.38
2023-02-23T18:03:51.488Z,-6.40
2023-02-23T18:06:20.280Z,-6.42
2023-02-23T18:08:49.577Z,-6.45
2023-02-23T18:11:20.109Z,-6.46
2023-02-23T18:13:51.524Z,-6.48
2023-02-23T18:16:20.842Z,-6.50
2023-02-23T18:18:49.649Z,-6.49
2023-02-23T18:21:20.526Z,-6.46
2023-02-23T18:23:50.216Z,-6.47
2023-02-23T18:26:20.740Z,-6.48
2023-02-23T18:28:49.917Z,-6.49
2023-02-23T18:31:23.509Z,-6.51
2023-02-23T18:33:55.078Z,-6.53
2023-02-23T18:36:29.288Z,-6.53
2023-02-23T18:38:59.537Z,-6.52
2023-02-23T18:41:31.130Z,-6.52
2023-02-23T18:44:01.726Z,-6.53
2023-02-23T18:46:33.578Z,-6.56
2023-02-23T18:49:03.983Z,-6.62
2023-02-23T18:51:33.389Z,-6.69
2023-02-23T18:54:03.712Z,-6.74
2023-02-23T18:56:32.297Z,-6.78
2023-02-23T18:59:01.999Z,-6.83
2023-02-23T19:01:33.539Z,-6.90
2023-02-23T19:04:02.573Z,-6.95
2023-02-23T19:06:32.166Z,-7.01
2023-02-23T19:09:04.524Z,-7.05
2023-02-23T19:11:34.340Z,-7.09
2023-02-23T19:14:09.585Z,-7.13
2023-02-23T19:16:38.516Z,-7.16
2023-02-23T19:19:08.123Z,-7.20
2023-02-23T19:21:38.713Z,-7.21
2023-02-23T19:24:08.122Z,-7.25
2023-02-23T19:26:37.609Z,-7.28
2023-02-23T19:29:06.503Z,-7.29
2023-02-23T19:31:37.083Z,-7.30
2023-02-23T19:34:09.094Z,-7.29
2023-02-23T19:36:38.087Z,-7.29
2023-02-23T19:39:11.385Z,-7.30
2023-02-23T19:41:40.999Z,-7.30
2023-02-23T19:44:10.699Z,-7.30
2023-02-23T19:46:43.277Z,-7.31
2023-02-23T19:49:12.125Z,-7.32
2023-02-23T19:51:41.479Z,-7.32
2023-02-23T19:54:10.664Z,-7.32
2023-02-23T19:56:39.862Z,-7.31
2023-02-23T19:59:08.860Z,-7.30
2023-02-23T20:01:38.072Z,-7.29
2023-02-23T20:04:08.584Z,-7.29
2023-02-23T20:06:45.098Z,-7.29
2023-02-23T20:09:14.453Z,-7.29
2023-02-23T20:11:49.592Z,-7.28
2023-02-23T20:14:18.884Z,-7.27
2023-02-23T20:16:48.776Z,-7.22
2023-02-23T20:19:18.202Z,-7.20
2023-02-23T20:21:47.744Z,-7.17
2023-02-23T20:24:25.917Z,-7.15
2023-02-23T20:26:58.391Z,-7.10
2023-02-23T20:29:28.508Z,-7.08
2023-02-23T20:31:58.368Z,-7.07
2023-02-23T20:34:27.113Z,-7.05
2023-02-23T20:36:56.101Z,-7.04
2023-02-23T20:39:25.094Z,-7.03
2023-02-23T20:41:55.325Z,-7.01
2023-02-23T20:44:24.507Z,-6.99
2023-02-23T20:46:53.406Z,-6.96
2023-02-23T20:49:24.549Z,-6.94
2023-02-23T20:51:54.569Z,-6.92
2023-02-23T20:54:23.985Z,-6.89
2023-02-23T20:56:59.202Z,-6.87
2023-02-23T20:59:32.606Z,-6.85
2023-02-23T21:02:02.623Z,-6.83
2023-02-23T21:04:32.336Z,-6.84
2023-02-23T21:07:01.439Z,-6.85
2023-02-23T21:09:31.141Z,-6.86
2023-02-23T21:11:59.960Z,-6.87
2023-02-23T21:14:30.048Z,-6.88
2023-02-23T21:16:58.966Z,-6.90
2023-02-23T21:19:27.625Z,-6.91
2023-02-23T21:21:58.465Z,-6.92
2023-02-23T21:24:27.146Z,-6.93
2023-02-23T21:26:55.734Z,-6.97
2023-02-23T21:29:24.722Z,-7.00
2023-02-23T21:31:54.322Z,-7.03
2023-02-23T21:34:23.017Z,-7.05
2023-02-23T21:36:52.938Z,-7.08
2023-02-23T21:39:23.065Z,-7.10
2023-02-23T21:41:52.453Z,-7.12
2023-02-23T21:44:21.140Z,-7.14
2023-02-23T21:46:51.818Z,-7.17
2023-02-23T21:49:20.773Z,-7.18
2023-02-23T21:51:52.477Z,-7.19
2023-02-23T21:54:21.820Z,-7.22
2023-02-23T21:56:50.500Z,-7.23
2023-02-23T21:59:20.319Z,-7.26
2023-02-23T22:01:49.050Z,-7.27
2023-02-23T22:04:17.999Z,-7.29
2023-02-23T22:06:46.678Z,-7.30
2023-02-23T22:09:16.098Z,-7.31
2023-02-23T22:11:46.650Z,-7.33
2023-02-23T22:14:17.108Z,-7.33
2023-02-23T22:16:46.746Z,-7.33
2023-02-23T22:19:16.759Z,-7.31
2023-02-23T22:21:48.065Z,-7.30
2023-02-23T22:24:17.106Z,-7.28
2023-02-23T22:26:55.433Z,-7.28
2023-02-23T22:29:25.448Z,-7.28
2023-02-23T22:31:54.067Z,-7.28
2023-02-23T22:34:23.110Z,-7.29
2023-02-23T22:36:54.866Z,-7.29
2023-02-23T22:39:23.756Z,-7.30
2023-02-23T22:41:52.243Z,-7.31
2023-02-23T22:44:23.279Z,-7.32
2023-02-23T22:46:53.369Z,-7.32
2023-02-23T22:49:21.983Z,-7.32
2023-02-23T22:51:50.885Z,-7.32
2023-02-23T22:54:24.167Z,-7.31
2023-02-23T22:56:52.753Z,-7.33
2023-02-23T22:59:21.337Z,-7.33
2023-02-23T23:01:56.772Z,-7.33
2023-02-23T23:04:26.159Z,-7.33
2023-02-23T23:06:54.759Z,-7.33
2023-02-23T23:09:23.546Z,-7.34
2023-02-23T23:11:52.330Z,-7.34
2023-02-23T23:14:24.600Z,-7.34
2023-02-23T23:16:53.619Z,-7.34
2023-02-23T23:19:26.271Z,-7.34
2023-02-23T23:21:55.998Z,-7.34
2023-02-23T23:24:27.536Z,-7.35
2023-02-23T23:27:00.479Z,-7.35
2023-02-23T23:29:32.737Z,-7.35
2023-02-23T23:32:04.963Z,-7.34
2023-02-23T23:34:34.671Z,-7.32
2023-02-23T23:37:04.689Z,-7.31
2023-02-23T23:39:33.792Z,-7.32
2023-02-23T23:42:05.957Z,-7.33
2023-02-23T23:44:34.945Z,-7.34
2023-02-23T23:47:05.678Z,-7.34
2023-02-23T23:49:38.979Z,-7.33
2023-02-23T23:52:08.682Z,-7.34
2023-02-23T23:54:39.482Z,-7.34
2023-02-23T23:57:08.321Z,-7.34
2023-02-23T23:59:46.434Z,-7.35
